createdAt,value
2023-01-02T00:01:39.214Z,8.41
2023-01-02T00:04:06.362Z,8.40
2023-01-02T00:06:37.394Z,8.39
2023-01-02T00:09:04.687Z,8.34
2023-01-02T00:11:31.767Z,8.30
2023-01-02T00:13:58.407Z,8.27
2023-01-02T00:16:25.290Z,8.20
2023-01-02T00:18:53.705Z,8.14
2023-01-02T00:21:20.290Z,8.09
2023-01-02T00:23:46.858Z,8.04
2023-01-02T00:26:13.356Z,8.02
2023-01-02T00:28:40.007Z,8.01
2023-01-02T00:31:12.983Z,8.02
2023-01-02T00:33:39.694Z,8.03
2023-01-02T00:36:08.308Z,8.03
2023-01-02T00:38:38.032Z,8.07
2023-01-02T00:41:06.231Z,8.08
2023-01-02T00:43:33.069Z,8.04
2023-01-02T00:45:59.756Z,8.00
2023-01-02T00:48:26.288Z,7.98
2023-01-02T00:50:52.929Z,7.96
2023-01-02T00:53:19.921Z,7.97
2023-01-02T00:55:46.442Z,7.96
2023-01-02T00:58:12.980Z,7.96
2023-01-02T01:00:39.657Z,7.99
2023-01-02T01:03:06.390Z,7.99
2023-01-02T01:05:33.063Z,8.00
2023-01-02T01:07:59.707Z,8.00
2023-01-02T01:10:26.457Z,8.00
2023-01-02T01:12:53.073Z,8.00
2023-01-02T01:15:19.791Z,8.02
2023-01-02T01:17:46.520Z,8.00
2023-01-02T01:20:13.097Z,7.98
2023-01-02T01:22:39.796Z,7.96
2023-01-02T01:25:06.790Z,7.94
2023-01-02T01:27:33.346Z,7.94
2023-01-02T01:29:59.956Z,7.94
2023-01-02T01:32:28.435Z,7.89
2023-01-02T01:34:55.361Z,7.89
2023-01-02T01:37:22.037Z,7.89
2023-01-02T01:39:51.515Z,7.89
2023-01-02T01:42:20.606Z,7.86
2023-01-02T01:44:53.538Z,7.84
2023-01-02T01:47:32.192Z,7.80
2023-01-02T01:50:08.121Z,7.82
2023-01-02T01:52:40.599Z,7.81
2023-01-02T01:55:18.745Z,7.76
2023-01-02T01:57:50.791Z,7.78
2023-01-02T02:00:17.850Z,7.77
2023-01-02T02:02:49.691Z,7.73
2023-01-02T02:05:21.389Z,7.69
2023-01-02T02:08:21.831Z,7.64
2023-01-02T02:10:50.473Z,7.63
2023-01-02T02:13:17.288Z,7.63
2023-01-02T02:16:02.816Z,7.68
2023-01-02T02:19:11.367Z,7.73
2023-01-02T02:22:11.466Z,7.77
2023-01-02T02:24:59.950Z,7.77
2023-01-02T02:27:51.470Z,7.80
2023-01-02T02:30:22.558Z,7.79
2023-01-02T02:32:53.943Z,7.82
2023-01-02T02:36:12.771Z,7.82
2023-01-02T02:38:51.941Z,7.78
2023-01-02T02:41:48.532Z,7.76
2023-01-02T02:44:15.046Z,7.73
2023-01-02T02:47:02.512Z,7.68
2023-01-02T02:50:09.499Z,7.65
2023-01-02T02:52:57.471Z,7.65
2023-01-02T02:55:36.267Z,7.67
2023-01-02T02:58:03.635Z,7.67
2023-01-02T03:00:30.236Z,7.65
2023-01-02T03:02:56.971Z,7.66
2023-01-02T03:05:40.377Z,7.70
2023-01-02T03:08:38.273Z,7.74
2023-01-02T03:11:05.171Z,7.70
2023-01-02T03:13:56.346Z,7.66
2023-01-02T03:16:29.375Z,7.59
2023-01-02T03:19:05.192Z,7.50
2023-01-02T03:21:45.340Z,7.43
2023-01-02T03:24:16.332Z,7.35
2023-01-02T03:26:44.505Z,7.29
2023-01-02T03:29:21.486Z,7.25
2023-01-02T03:31:53.991Z,7.24
2023-01-02T03:34:25.165Z,7.18
2023-01-02T03:37:03.149Z,7.17
2023-01-02T03:39:34.383Z,7.13
2023-01-02T03:42:03.375Z,7.08
2023-01-02T03:44:39.792Z,7.06
2023-01-02T03:47:18.438Z,7.00
2023-01-02T03:49:48.268Z,6.97
2023-01-02T03:52:14.997Z,6.93
2023-01-02T03:54:41.859Z,6.91
2023-01-02T03:57:08.465Z,6.90
2023-01-02T04:00:14.227Z,6.90
2023-01-02T04:02:54.808Z,6.87
2023-01-02T04:05:48.399Z,6.83
2023-01-02T04:08:28.319Z,6.71
2023-01-02T04:10:58.856Z,6.65
2023-01-02T04:13:34.654Z,6.60
2023-01-02T04:16:03.653Z,6.54
2023-01-02T04:18:39.058Z,6.48
2023-01-02T04:21:15.179Z,6.37
2023-01-02T04:23:55.821Z,6.35
2023-01-02T04:26:43.889Z,6.31
2023-01-02T04:29:10.786Z,6.22
2023-01-02T04:31:59.016Z,6.20
2023-01-02T04:34:30.456Z,6.19
2023-01-02T04:36:57.136Z,6.11
2023-01-02T04:39:26.312Z,6.09
2023-01-02T04:41:52.858Z,6.03
2023-01-02T04:44:19.529Z,6.04
2023-01-02T04:46:46.071Z,5.96
2023-01-02T04:49:12.620Z,5.91
2023-01-02T04:51:39.252Z,5.89
2023-01-02T04:54:05.825Z,5.88
2023-01-02T04:56:32.382Z,5.89
2023-01-02T04:58:58.956Z,5.86
2023-01-02T05:01:25.621Z,5.82
2023-01-02T05:03:52.376Z,5.77
2023-01-02T05:06:19.428Z,5.73
2023-01-02T05:08:46.084Z,5.69
2023-01-02T05:11:17.840Z,5.73
2023-01-02T05:13:44.795Z,5.75
2023-01-02T05:16:12.022Z,5.81
2023-01-02T05:18:38.631Z,5.76
2023-01-02T05:21:31.334Z,5.76
2023-01-02T05:24:01.257Z,5.78
2023-01-02T05:26:30.466Z,5.76
2023-01-02T05:28:56.973Z,5.74
2023-01-02T05:31:23.677Z,5.69
2023-01-02T05:33:52.061Z,5.62
2023-01-02T05:36:19.338Z,5.62
2023-01-02T05:38:45.959Z,5.55
2023-01-02T05:41:12.458Z,5.54
2023-01-02T05:43:38.968Z,5.54
2023-01-02T05:46:20.214Z,5.48
2023-01-02T05:48:47.249Z,5.52
2023-01-02T05:51:16.721Z,5.53
2023-01-02T05:53:43.583Z,5.50
2023-01-02T05:56:13.251Z,5.49
2023-01-02T05:58:42.730Z,5.41
2023-01-02T06:01:15.746Z,5.37
2023-01-02T06:03:47.104Z,5.39
2023-01-02T06:06:14.569Z,5.44
2023-01-02T06:08:41.624Z,5.45
2023-01-02T06:11:08.232Z,5.48
2023-01-02T06:13:37.057Z,5.53
2023-01-02T06:16:06.289Z,5.54
2023-01-02T06:18:34.337Z,5.54
2023-01-02T06:21:12.458Z,5.53
2023-01-02T06:23:39.362Z,5.50
2023-01-02T06:26:12.170Z,5.47
2023-01-02T06:28:39.456Z,5.52
2023-01-02T06:31:08.358Z,5.54
2023-01-02T06:33:35.870Z,5.53
2023-01-02T06:36:06.090Z,5.52
2023-01-02T06:38:33.009Z,5.49
2023-01-02T06:41:01.116Z,5.46
2023-01-02T06:43:29.253Z,5.45
2023-01-02T06:46:00.860Z,5.40
2023-01-02T06:48:27.806Z,5.38
2023-01-02T06:50:55.122Z,5.42
2023-01-02T06:53:21.648Z,5.46
2023-01-02T06:55:56.615Z,5.44
2023-01-02T06:58:24.648Z,5.42
2023-01-02T07:00:52.221Z,5.50
2023-01-02T07:03:19.023Z,5.57
2023-01-02T07:05:46.076Z,5.59
2023-01-02T07:08:13.012Z,5.66
2023-01-02T07:10:39.660Z,5.76
2023-01-02T07:13:06.316Z,5.77
2023-01-02T07:15:32.990Z,5.85
2023-01-02T07:17:59.761Z,5.87
2023-01-02T07:20:26.876Z,5.90
2023-01-02T07:22:53.940Z,5.97
2023-01-02T07:25:21.520Z,6.00
2023-01-02T07:27:48.337Z,6.02
2023-01-02T07:30:15.263Z,6.04
2023-01-02T07:32:42.770Z,6.08
2023-01-02T07:35:12.732Z,6.10
2023-01-02T07:37:39.932Z,6.14
2023-01-02T07:40:08.587Z,6.15
2023-01-02T07:42:35.125Z,6.19
2023-01-02T07:45:04.318Z,6.26
2023-01-02T07:47:31.601Z,6.32
2023-01-02T07:50:00.745Z,6.37
2023-01-02T07:52:27.452Z,6.46
2023-01-02T07:54:54.003Z,6.52
2023-01-02T07:57:20.559Z,6.60
2023-01-02T07:59:49.495Z,6.67
2023-01-02T08:02:17.666Z,6.74
2023-01-02T08:04:47.805Z,6.82
2023-01-02T08:07:14.474Z,6.89
2023-01-02T08:09:49.197Z,6.97
2023-01-02T08:12:15.783Z,7.09
2023-01-02T08:14:43.601Z,7.18
2023-01-02T08:17:10.181Z,7.27
2023-01-02T08:19:36.794Z,7.34
2023-01-02T08:22:03.733Z,7.39
2023-01-02T08:24:32.721Z,7.46
2023-01-02T08:26:59.387Z,7.55
2023-01-02T08:29:26.043Z,7.62
2023-01-02T08:31:52.702Z,7.71
2023-01-02T08:34:19.387Z,7.78
2023-01-02T08:36:46.093Z,7.86
2023-01-02T08:39:12.645Z,7.95
2023-01-02T08:41:40.594Z,8.04
2023-01-02T08:44:07.320Z,8.14
2023-01-02T08:46:41.982Z,8.24
2023-01-02T08:49:10.512Z,8.33
2023-01-02T08:51:37.230Z,8.40
2023-01-02T08:54:04.511Z,8.48
2023-01-02T08:56:32.676Z,8.55
2023-01-02T08:59:02.491Z,8.61
2023-01-02T09:01:31.052Z,8.69
2023-01-02T09:03:59.295Z,8.76
2023-01-02T09:06:27.760Z,8.81
2023-01-02T09:08:57.059Z,8.85
2023-01-02T09:11:36.380Z,8.87
2023-01-02T09:14:04.377Z,8.91
2023-01-02T09:16:32.490Z,8.96
2023-01-02T09:19:01.013Z,9.01
2023-01-02T09:21:28.588Z,9.06
2023-01-02T09:23:55.340Z,9.12
2023-01-02T09:26:22.068Z,9.19
2023-01-02T09:28:48.883Z,9.27
2023-01-02T09:31:16.661Z,9.34
2023-01-02T09:33:44.867Z,9.43
2023-01-02T09:36:14.944Z,9.51
2023-01-02T09:38:42.028Z,9.58
2023-01-02T09:41:27.037Z,9.66
2023-01-02T09:44:04.975Z,9.76
2023-01-02T09:46:40.476Z,9.88
2023-01-02T09:49:12.577Z,9.99
2023-01-02T09:51:39.633Z,10.08
2023-01-02T09:54:17.833Z,10.17
2023-01-02T09:56:49.133Z,10.27
2023-01-02T09:59:42.590Z,10.34
2023-01-02T10:02:17.596Z,10.41
2023-01-02T10:04:56.750Z,10.47
2023-01-02T10:07:36.777Z,10.53
2023-01-02T10:10:37.301Z,10.59
2023-01-02T10:13:09.687Z,10.69
2023-01-02T10:15:38.214Z,10.77
2023-01-02T10:18:24.078Z,10.86
2023-01-02T10:20:59.353Z,10.96
2023-01-02T10:23:49.347Z,11.05
2023-01-02T10:26:21.637Z,11.16
2023-01-02T10:28:48.153Z,11.25
2023-01-02T10:31:38.853Z,11.32
2023-01-02T10:34:11.310Z,11.40
2023-01-02T10:36:42.902Z,11.50
2023-01-02T10:39:22.026Z,11.59
2023-01-02T10:41:53.213Z,11.71
2023-01-02T10:44:26.271Z,11.80
2023-01-02T10:46:54.217Z,11.92
2023-01-02T10:49:22.939Z,12.06
2023-01-02T10:51:57.628Z,12.20
2023-01-02T10:54:24.253Z,12.36
2023-01-02T10:56:51.324Z,12.47
2023-01-02T10:59:27.289Z,12.56
2023-01-02T11:01:58.902Z,12.68
2023-01-02T11:04:30.119Z,12.78
2023-01-02T11:07:00.094Z,12.86
2023-01-02T11:09:32.842Z,12.91
2023-01-02T11:12:10.090Z,13.00
2023-01-02T11:14:37.379Z,13.08
2023-01-02T11:17:21.760Z,13.16
2023-01-02T11:19:51.656Z,13.23
2023-01-02T11:22:21.570Z,13.29
2023-01-02T11:25:03.212Z,13.34
2023-01-02T11:27:43.730Z,13.37
2023-01-02T11:30:42.317Z,13.39
2023-01-02T11:33:20.252Z,13.40
2023-01-02T11:35:52.548Z,13.43
2023-01-02T11:38:29.413Z,13.45
2023-01-02T11:41:02.287Z,13.48
2023-01-02T11:43:51.256Z,13.55
2023-01-02T11:46:26.939Z,13.60
2023-01-02T11:49:11.128Z,13.62
2023-01-02T11:51:39.820Z,13.62
2023-01-02T11:54:14.054Z,13.64
2023-01-02T11:56:44.278Z,13.67
2023-01-02T11:59:20.590Z,13.70
2023-01-02T12:01:53.269Z,13.72
2023-01-02T12:04:23.033Z,13.70
2023-01-02T12:07:11.870Z,13.68
2023-01-02T12:09:50.691Z,13.62
2023-01-02T12:12:47.660Z,13.58
2023-01-02T12:15:31.809Z,13.53
2023-01-02T12:18:10.761Z,13.50
2023-01-02T12:20:56.193Z,13.51
2023-01-02T12:23:45.235Z,13.50
2023-01-02T12:26:18.547Z,13.48
2023-01-02T12:29:12.366Z,13.45
2023-01-02T12:31:51.410Z,13.45
2023-01-02T12:34:36.926Z,13.49
2023-01-02T12:37:18.183Z,13.51
2023-01-02T12:40:02.937Z,13.48
2023-01-02T12:42:51.689Z,13.45
2023-01-02T12:45:26.475Z,13.44
2023-01-02T12:48:30.138Z,13.42
2023-01-02T12:51:34.306Z,13.42
2023-01-02T12:54:19.623Z,13.44
2023-01-02T12:57:08.209Z,13.46
2023-01-02T12:59:47.924Z,13.46
2023-01-02T13:02:31.038Z,13.45
2023-01-02T13:05:05.667Z,13.41
2023-01-02T13:07:52.517Z,13.42
2023-01-02T13:10:24.159Z,13.45
2023-01-02T13:12:52.034Z,13.46
2023-01-02T13:15:18.689Z,13.46
2023-01-02T13:18:17.163Z,13.46
2023-01-02T13:20:46.840Z,13.49
2023-01-02T13:23:31.638Z,13.50
2023-01-02T13:26:23.149Z,13.49
2023-01-02T13:29:02.900Z,13.47
2023-01-02T13:31:46.614Z,13.46
2023-01-02T13:34:22.311Z,13.46
2023-01-02T13:36:57.915Z,13.47
2023-01-02T13:39:45.138Z,13.44
2023-01-02T13:42:49.860Z,13.40
2023-01-02T13:45:42.523Z,13.34
2023-01-02T13:48:39.537Z,13.30
2023-01-02T13:51:12.600Z,13.29
2023-01-02T13:53:44.906Z,13.25
2023-01-02T13:56:18.117Z,13.22
2023-01-02T13:59:42.472Z,13.21
2023-01-02T14:02:16.406Z,13.21
2023-01-02T14:04:43.354Z,13.17
2023-01-02T14:07:42.367Z,13.13
2023-01-02T14:10:08.948Z,13.08
2023-01-02T14:12:57.000Z,13.05
2023-01-02T14:15:26.112Z,13.03
2023-01-02T14:18:05.016Z,13.03
2023-01-02T14:20:37.956Z,13.01
2023-01-02T14:23:08.908Z,12.97
2023-01-02T14:25:48.371Z,12.95
2023-01-02T14:28:37.187Z,12.93
2023-01-02T14:31:31.497Z,12.92
2023-01-02T14:33:59.487Z,12.90
2023-01-02T14:36:42.589Z,12.88
2023-01-02T14:39:32.864Z,12.85
2023-01-02T14:42:31.659Z,12.79
2023-01-02T14:45:05.912Z,12.73
2023-01-02T14:47:44.537Z,12.67
2023-01-02T14:50:21.093Z,12.60
2023-01-02T14:52:54.832Z,12.53
2023-01-02T14:55:24.990Z,12.47
2023-01-02T14:57:54.005Z,12.41
2023-01-02T15:00:22.143Z,12.35
2023-01-02T15:02:54.356Z,12.28
2023-01-02T15:05:35.724Z,12.21
2023-01-02T15:08:07.706Z,12.14
2023-01-02T15:11:21.150Z,12.07
2023-01-02T15:14:05.402Z,12.00
2023-01-02T15:16:49.805Z,11.95
2023-01-02T15:19:41.075Z,11.89
2023-01-02T15:22:16.604Z,11.84
2023-01-02T15:24:48.531Z,11.80
2023-01-02T15:27:27.501Z,11.78
2023-01-02T15:29:56.383Z,11.76
2023-01-02T15:32:25.898Z,11.76
2023-01-02T15:34:52.887Z,11.74
2023-01-02T15:37:22.036Z,11.71
2023-01-02T15:39:53.083Z,11.66
2023-01-02T15:42:39.999Z,11.60
2023-01-02T15:45:15.429Z,11.53
2023-01-02T15:47:50.511Z,11.44
2023-01-02T15:50:25.951Z,11.34
2023-01-02T15:53:00.114Z,11.27
2023-01-02T15:55:30.704Z,11.22
2023-01-02T15:57:57.374Z,11.17
2023-01-02T16:00:30.780Z,11.15
2023-01-02T16:02:57.516Z,11.11
2023-01-02T16:05:24.698Z,11.10
2023-01-02T16:07:53.370Z,11.09
2023-01-02T16:10:27.692Z,11.06
2023-01-02T16:13:02.781Z,11.03
2023-01-02T16:15:34.051Z,11.01
2023-01-02T16:18:01.641Z,10.99
2023-01-02T16:20:29.252Z,10.95
2023-01-02T16:23:04.152Z,10.91
2023-01-02T16:25:34.693Z,10.85
2023-01-02T16:28:35.034Z,10.78
2023-01-02T16:31:19.108Z,10.70
2023-01-02T16:33:46.124Z,10.63
2023-01-02T16:36:15.619Z,10.56
2023-01-02T16:39:01.731Z,10.51
2023-01-02T16:41:36.519Z,10.43
2023-01-02T16:44:13.561Z,10.34
2023-01-02T16:46:46.316Z,10.31
2023-01-02T16:49:18.049Z,10.27
2023-01-02T16:51:46.922Z,10.22
2023-01-02T16:54:15.166Z,10.18
2023-01-02T16:56:42.239Z,10.15
2023-01-02T16:59:08.966Z,10.10
2023-01-02T17:01:35.644Z,10.04
2023-01-02T17:04:02.421Z,9.97
2023-01-02T17:06:29.173Z,9.93
2023-01-02T17:08:55.989Z,9.90
2023-01-02T17:11:24.560Z,9.86
2023-01-02T17:13:51.967Z,9.82
2023-01-02T17:16:19.766Z,9.79
2023-01-02T17:18:46.430Z,9.78
2023-01-02T17:21:13.118Z,9.79
2023-01-02T17:23:39.636Z,9.78
2023-01-02T17:26:06.320Z,9.75
2023-01-02T17:28:33.174Z,9.68
2023-01-02T17:30:59.732Z,9.61
2023-01-02T17:33:26.340Z,9.56
2023-01-02T17:35:52.984Z,9.49
2023-01-02T17:38:19.654Z,9.42
2023-01-02T17:40:46.319Z,9.37
2023-01-02T17:43:13.010Z,9.31
2023-01-02T17:45:41.986Z,9.24
2023-01-02T17:48:12.670Z,9.20
2023-01-02T17:50:40.277Z,9.19
2023-01-02T17:53:07.687Z,9.18
2023-01-02T17:55:34.753Z,9.16
2023-01-02T17:58:02.452Z,9.10
2023-01-02T18:00:29.071Z,9.01
2023-01-02T18:02:55.703Z,8.99
2023-01-02T18:05:22.672Z,8.95
2023-01-02T18:07:49.508Z,8.89
2023-01-02T18:10:19.956Z,8.83
2023-01-02T18:12:49.151Z,8.76
2023-01-02T18:15:17.933Z,8.70
2023-01-02T18:17:44.543Z,8.66
2023-01-02T18:20:17.337Z,8.64
2023-01-02T18:22:49.595Z,8.61
2023-01-02T18:25:26.423Z,8.57
2023-01-02T18:28:01.101Z,8.53
2023-01-02T18:30:28.375Z,8.52
2023-01-02T18:33:13.272Z,8.54
2023-01-02T18:35:57.135Z,8.53
2023-01-02T18:38:34.845Z,8.46
2023-01-02T18:41:24.522Z,8.47
2023-01-02T18:43:55.874Z,8.41
2023-01-02T18:47:03.138Z,8.28
2023-01-02T18:49:25.067Z,8.23
2023-01-02T18:52:10.087Z,8.20
2023-01-02T18:54:41.112Z,8.16
2023-01-02T18:57:19.076Z,8.06
2023-01-02T18:59:47.400Z,7.98
2023-01-02T19:02:47.014Z,7.95
2023-01-02T19:05:23.317Z,7.94
2023-01-02T19:07:49.940Z,7.94
2023-01-02T19:10:36.686Z,7.94
2023-01-02T19:13:21.761Z,7.95
2023-01-02T19:16:05.100Z,7.95
2023-01-02T19:18:43.896Z,7.96
2023-01-02T19:21:14.655Z,7.95
2023-01-02T19:23:49.257Z,7.93
2023-01-02T19:26:21.657Z,7.92
2023-01-02T19:28:55.290Z,7.86
2023-01-02T19:31:22.767Z,7.82
2023-01-02T19:33:54.201Z,7.81
2023-01-02T19:36:27.965Z,7.79
2023-01-02T19:38:54.556Z,7.79
2023-01-02T19:41:41.094Z,7.80
2023-01-02T19:44:07.885Z,7.77
2023-01-02T19:46:34.578Z,7.72
2023-01-02T19:49:01.303Z,7.75
2023-01-02T19:51:31.426Z,7.72
2023-01-02T19:54:03.803Z,7.68
2023-01-02T19:56:31.507Z,7.62
2023-01-02T19:58:58.106Z,7.58
2023-01-02T20:01:24.814Z,7.57
2023-01-02T20:03:51.527Z,7.57
2023-01-02T20:06:18.170Z,7.57
2023-01-02T20:08:46.379Z,7.54
2023-01-02T20:11:32.915Z,7.52
2023-01-02T20:13:59.495Z,7.50
2023-01-02T20:16:26.293Z,7.48
2023-01-02T20:18:53.000Z,7.51
2023-01-02T20:21:21.372Z,7.46
2023-01-02T20:23:51.515Z,7.49
2023-01-02T20:26:22.747Z,7.43
2023-01-02T20:28:49.572Z,7.41
2023-01-02T20:31:16.120Z,7.34
2023-01-02T20:33:42.861Z,7.28
2023-01-02T20:36:13.806Z,7.25
2023-01-02T20:38:40.720Z,7.20
2023-01-02T20:41:07.349Z,7.16
2023-01-02T20:43:33.923Z,7.15
2023-01-02T20:46:00.541Z,7.08
2023-01-02T20:48:27.191Z,7.11
2023-01-02T20:50:54.509Z,7.05
2023-01-02T20:53:21.185Z,7.03
2023-01-02T20:55:48.058Z,7.04
2023-01-02T20:58:14.698Z,7.05
2023-01-02T21:00:41.833Z,7.03
2023-01-02T21:03:08.620Z,7.02
2023-01-02T21:05:36.116Z,7.03
2023-01-02T21:08:02.763Z,7.03
2023-01-02T21:10:29.291Z,7.00
2023-01-02T21:13:09.960Z,7.03
2023-01-02T21:15:44.731Z,7.03
2023-01-02T21:18:14.652Z,7.03
2023-01-02T21:20:46.289Z,7.05
2023-01-02T21:23:14.160Z,7.08
2023-01-02T21:25:42.440Z,7.08
2023-01-02T21:28:11.892Z,7.08
2023-01-02T21:30:40.196Z,7.04
2023-01-02T21:33:07.570Z,7.03
2023-01-02T21:35:34.696Z,7.07
2023-01-02T21:38:01.795Z,7.04
2023-01-02T21:40:29.129Z,6.98
2023-01-02T21:42:55.738Z,6.96
2023-01-02T21:45:22.957Z,6.96
2023-01-02T21:47:49.559Z,6.96
2023-01-02T21:50:16.857Z,6.96
2023-01-02T21:52:43.660Z,6.97
2023-01-02T21:55:10.721Z,7.01
2023-01-02T22:00:26.338Z,6.98
2023-01-02T22:02:53.810Z,6.97
2023-01-02T22:05:23.107Z,6.94
2023-01-02T22:07:49.720Z,6.93
2023-01-02T22:10:16.623Z,6.94
2023-01-02T22:12:43.272Z,6.96
2023-01-02T22:15:11.887Z,7.00
2023-01-02T22:17:41.068Z,6.99
2023-01-02T22:20:08.261Z,6.96
2023-01-02T22:22:35.471Z,6.93
2023-01-02T22:25:03.512Z,6.89
2023-01-02T22:27:30.611Z,6.86
2023-01-02T22:32:47.023Z,6.73
2023-01-02T22:35:13.821Z,6.68
2023-01-02T22:37:40.408Z,6.72
2023-01-02T22:40:07.618Z,6.66
2023-01-02T22:43:10.094Z,6.61
2023-01-02T22:45:46.191Z,6.63
2023-01-02T22:48:22.593Z,6.59
2023-01-02T22:50:51.308Z,6.64
2023-01-02T22:53:28.150Z,6.66
2023-01-02T22:55:55.374Z,6.61
2023-01-02T22:58:22.686Z,6.62
2023-01-02T23:00:58.592Z,6.61
2023-01-02T23:03:28.715Z,6.63
2023-01-02T23:05:56.051Z,6.58
2023-01-02T23:08:22.785Z,6.58
2023-01-02T23:10:49.437Z,6.59
2023-01-02T23:13:16.012Z,6.57
2023-01-02T23:16:02.609Z,6.49
2023-01-02T23:18:53.198Z,6.49
2023-01-02T23:21:26.206Z,6.46
2023-01-02T23:23:53.412Z,6.45
2023-01-02T23:26:22.074Z,6.40
2023-01-02T23:31:38.553Z,6.36
2023-01-02T23:34:07.587Z,6.36
2023-01-02T23:36:35.024Z,6.32
2023-01-02T23:39:02.282Z,6.27
2023-01-02T23:41:29.454Z,6.18
2023-01-02T23:43:56.429Z,6.14
2023-01-02T23:46:23.233Z,6.10
2023-01-02T23:48:51.415Z,6.12
2023-01-02T23:51:18.065Z,6.16
2023-01-02T23:53:44.666Z,6.17
2023-01-02T23:56:18.782Z,6.13
2023-01-02T23:58:47.310Z,6.07
